sensor_id;sensor_type;location;lat;lon;timestamp;P1;durP1;ratioP1;P2;durP2;ratioP2
22378;SDS011;11357;49.990;7.370;2022-11-22T00:01:01;418.60;;;388.73;;
22378;SDS011;11357;49.990;7.370;2022-11-22T00:03:27;428.27;;;396.67;;
22378;SDS011;11357;49.990;7.370;2022-11-22T00:05:52;440.83;;;408.10;;
22378;SDS011;11357;49.990;7.370;2022-11-22T00:08:18;491.03;;;454.93;;
22378;SDS011;11357;49.990;7.370;2022-11-22T00:10:44;427.77;;;396.57;;
22378;SDS011;11357;49.990;7.370;2022-11-22T00:13:12;329.40;;;304.10;;
22378;SDS011;11357;49.990;7.370;2022-11-22T00:15:38;301.33;;;281.07;;
22378;SDS011;11357;49.990;7.370;2022-11-22T00:18:03;428.93;;;398.40;;
22378;SDS011;11357;49.990;7.370;2022-11-22T00:20:29;450.63;;;416.57;;
22378;SDS011;11357;49.990;7.370;2022-11-22T00:22:55;485.70;;;449.03;;
22378;SDS011;11357;49.990;7.370;2022-11-22T00:25:22;438.67;;;405.20;;
22378;SDS011;11357;49.990;7.370;2022-11-22T00:27:47;477.93;;;439.27;;
22378;SDS011;11357;49.990;7.370;2022-11-22T00:30:13;495.17;;;458.47;;
22378;SDS011;11357;49.990;7.370;2022-11-22T00:32:39;407.30;;;378.60;;
22378;SDS011;11357;49.990;7.370;2022-11-22T00:35:05;474.27;;;437.83;;
22378;SDS011;11357;49.990;7.370;2022-11-22T00:37:31;421.17;;;388.90;;
22378;SDS011;11357;49.990;7.370;2022-11-22T00:39:57;422.73;;;392.57;;
22378;SDS011;11357;49.990;7.370;2022-11-22T00:42:22;478.83;;;440.97;;
22378;SDS011;11357;49.990;7.370;2022-11-22T00:44:48;447.50;;;412.93;;
22378;SDS011;11357;49.990;7.370;2022-11-22T00:47:14;489.47;;;452.53;;
22378;SDS011;11357;49.990;7.370;2022-11-22T00:49:39;477.90;;;441.50;;
22378;SDS011;11357;49.990;7.370;2022-11-22T00:52:05;467.47;;;433.07;;
22378;SDS011;11357;49.990;7.370;2022-11-22T00:54:31;480.40;;;444.63;;
22378;SDS011;11357;49.990;7.370;2022-11-22T00:56:56;402.80;;;374.93;;
22378;SDS011;11357;49.990;7.370;2022-11-22T00:59:22;419.13;;;389.27;;
22378;SDS011;11357;49.990;7.370;2022-11-22T01:01:48;356.83;;;330.33;;
22378;SDS011;11357;49.990;7.370;2022-11-22T01:04:14;434.70;;;402.93;;
22378;SDS011;11357;49.990;7.370;2022-11-22T01:06:39;413.73;;;384.30;;
22378;SDS011;11357;49.990;7.370;2022-11-22T01:09:05;442.27;;;410.60;;
22378;SDS011;11357;49.990;7.370;2022-11-22T01:11:31;438.20;;;406.37;;
22378;SDS011;11357;49.990;7.370;2022-11-22T01:13:58;436.47;;;403.67;;
22378;SDS011;11357;49.990;7.370;2022-11-22T01:16:24;438.53;;;386.40;;
22378;SDS011;11357;49.990;7.370;2022-11-22T01:18:50;325.60;;;304.13;;
22378;SDS011;11357;49.990;7.370;2022-11-22T01:21:16;375.07;;;349.20;;
22378;SDS011;11357;49.990;7.370;2022-11-22T01:23:41;414.07;;;385.97;;
22378;SDS011;11357;49.990;7.370;2022-11-22T01:26:07;405.63;;;375.73;;
22378;SDS011;11357;49.990;7.370;2022-11-22T01:28:34;292.73;;;272.80;;
22378;SDS011;11357;49.990;7.370;2022-11-22T01:31:00;338.00;;;313.03;;
22378;SDS011;11357;49.990;7.370;2022-11-22T01:33:27;379.33;;;350.60;;
22378;SDS011;11357;49.990;7.370;2022-11-22T01:35:52;273.10;;;254.60;;
22378;SDS011;11357;49.990;7.370;2022-11-22T01:38:18;238.20;;;222.97;;
22378;SDS011;11357;49.990;7.370;2022-11-22T01:40:44;290.63;;;270.07;;
22378;SDS011;11357;49.990;7.370;2022-11-22T01:43:13;349.83;;;324.77;;
22378;SDS011;11357;49.990;7.370;2022-11-22T01:45:44;170.33;;;159.27;;
22378;SDS011;11357;49.990;7.370;2022-11-22T01:50:42;129.97;;;121.07;;
22378;SDS011;11357;49.990;7.370;2022-11-22T01:53:11;233.80;;;217.80;;
22378;SDS011;11357;49.990;7.370;2022-11-22T01:55:41;233.73;;;218.50;;
22378;SDS011;11357;49.990;7.370;2022-11-22T01:58:07;275.43;;;256.33;;
22378;SDS011;11357;49.990;7.370;2022-11-22T02:00:35;206.23;;;193.33;;
22378;SDS011;11357;49.990;7.370;2022-11-22T02:03:02;167.23;;;154.20;;
22378;SDS011;11357;49.990;7.370;2022-11-22T02:05:30;334.87;;;310.63;;
22378;SDS011;11357;49.990;7.370;2022-11-22T02:10:39;314.63;;;294.23;;
22378;SDS011;11357;49.990;7.370;2022-11-22T02:13:08;230.93;;;216.20;;
22378;SDS011;11357;49.990;7.370;2022-11-22T02:15:35;262.87;;;246.57;;
22378;SDS011;11357;49.990;7.370;2022-11-22T02:18:01;234.33;;;218.60;;
22378;SDS011;11357;49.990;7.370;2022-11-22T02:20:27;224.40;;;210.37;;
22378;SDS011;11357;49.990;7.370;2022-11-22T02:28:15;343.83;;;319.47;;
22378;SDS011;11357;49.990;7.370;2022-11-22T02:30:41;244.60;;;227.43;;
22378;SDS011;11357;49.990;7.370;2022-11-22T02:33:07;281.63;;;262.00;;
22378;SDS011;11357;49.990;7.370;2022-11-22T02:35:33;125.70;;;117.10;;
22378;SDS011;11357;49.990;7.370;2022-11-22T02:38:03;247.57;;;230.50;;
22378;SDS011;11357;49.990;7.370;2022-11-22T02:40:35;137.30;;;127.97;;
22378;SDS011;11357;49.990;7.370;2022-11-22T02:43:05;220.13;;;199.70;;
22378;SDS011;11357;49.990;7.370;2022-11-22T02:45:35;255.83;;;237.40;;
22378;SDS011;11357;49.990;7.370;2022-11-22T02:48:09;156.27;;;145.47;;
22378;SDS011;11357;49.990;7.370;2022-11-22T02:50:39;156.07;;;144.93;;
22378;SDS011;11357;49.990;7.370;2022-11-22T02:53:06;155.67;;;145.13;;
22378;SDS011;11357;49.990;7.370;2022-11-22T02:55:32;174.20;;;161.73;;
22378;SDS011;11357;49.990;7.370;2022-11-22T02:57:59;213.20;;;198.87;;
22378;SDS011;11357;49.990;7.370;2022-11-22T03:00:25;145.73;;;135.17;;
22378;SDS011;11357;49.990;7.370;2022-11-22T03:02:51;180.27;;;167.27;;
22378;SDS011;11357;49.990;7.370;2022-11-22T03:05:17;256.40;;;237.80;;
22378;SDS011;11357;49.990;7.370;2022-11-22T03:07:42;233.30;;;216.73;;
22378;SDS011;11357;49.990;7.370;2022-11-22T03:10:08;224.33;;;209.27;;
22378;SDS011;11357;49.990;7.370;2022-11-22T03:12:34;202.20;;;188.80;;
22378;SDS011;11357;49.990;7.370;2022-11-22T03:15:00;114.10;;;105.30;;
22378;SDS011;11357;49.990;7.370;2022-11-22T03:17:25;247.17;;;228.77;;
22378;SDS011;11357;49.990;7.370;2022-11-22T03:19:51;207.57;;;193.67;;
22378;SDS011;11357;49.990;7.370;2022-11-22T03:22:17;235.47;;;218.77;;
22378;SDS011;11357;49.990;7.370;2022-11-22T03:24:42;129.33;;;120.60;;
22378;SDS011;11357;49.990;7.370;2022-11-22T03:27:08;220.43;;;205.23;;
22378;SDS011;11357;49.990;7.370;2022-11-22T03:29:34;168.03;;;155.87;;
22378;SDS011;11357;49.990;7.370;2022-11-22T03:31:59;255.57;;;237.40;;
22378;SDS011;11357;49.990;7.370;2022-11-22T03:34:25;178.60;;;165.83;;
22378;SDS011;11357;49.990;7.370;2022-11-22T03:36:51;246.33;;;229.50;;
22378;SDS011;11357;49.990;7.370;2022-11-22T03:39:16;211.07;;;195.53;;
22378;SDS011;11357;49.990;7.370;2022-11-22T03:41:42;257.37;;;239.23;;
22378;SDS011;11357;49.990;7.370;2022-11-22T03:44:07;240.03;;;223.50;;
22378;SDS011;11357;49.990;7.370;2022-11-22T03:46:33;212.10;;;198.10;;
22378;SDS011;11357;49.990;7.370;2022-11-22T03:48:59;218.60;;;204.10;;
22378;SDS011;11357;49.990;7.370;2022-11-22T03:51:25;188.03;;;174.40;;
22378;SDS011;11357;49.990;7.370;2022-11-22T03:53:51;130.90;;;122.43;;
22378;SDS011;11357;49.990;7.370;2022-11-22T03:56:16;171.23;;;159.60;;
22378;SDS011;11357;49.990;7.370;2022-11-22T03:58:42;125.50;;;115.43;;
22378;SDS011;11357;49.990;7.370;2022-11-22T04:01:08;51.83;;;47.27;;
22378;SDS011;11357;49.990;7.370;2022-11-22T04:03:34;51.37;;;47.27;;
22378;SDS011;11357;49.990;7.370;2022-11-22T04:05:59;77.20;;;70.83;;
22378;SDS011;11357;49.990;7.370;2022-11-22T04:08:25;107.57;;;100.23;;
22378;SDS011;11357;49.990;7.370;2022-11-22T04:10:51;68.73;;;63.03;;
22378;SDS011;11357;49.990;7.370;2022-11-22T04:13:17;46.03;;;42.20;;
22378;SDS011;11357;49.990;7.370;2022-11-22T04:15:43;50.40;;;45.93;;
22378;SDS011;11357;49.990;7.370;2022-11-22T04:18:09;37.23;;;33.23;;
22378;SDS011;11357;49.990;7.370;2022-11-22T04:20:36;30.60;;;24.73;;
22378;SDS011;11357;49.990;7.370;2022-11-22T04:23:21;40.00;;;32.77;;
22378;SDS011;11357;49.990;7.370;2022-11-22T04:25:49;26.37;;;15.20;;
22378;SDS011;11357;49.990;7.370;2022-11-22T04:28:18;30.80;;;20.23;;
22378;SDS011;11357;49.990;7.370;2022-11-22T04:30:46;27.40;;;21.90;;
22378;SDS011;11357;49.990;7.370;2022-11-22T04:33:31;40.13;;;36.93;;
22378;SDS011;11357;49.990;7.370;2022-11-22T04:35:57;53.03;;;46.07;;
22378;SDS011;11357;49.990;7.370;2022-11-22T04:38:24;65.97;;;60.40;;
22378;SDS011;11357;49.990;7.370;2022-11-22T04:40:50;52.77;;;48.43;;
22378;SDS011;11357;49.990;7.370;2022-11-22T04:43:18;52.83;;;48.37;;
22378;SDS011;11357;49.990;7.370;2022-11-22T04:46:10;48.33;;;43.97;;
22378;SDS011;11357;49.990;7.370;2022-11-22T04:48:38;75.50;;;70.57;;
22378;SDS011;11357;49.990;7.370;2022-11-22T04:51:04;61.97;;;56.43;;
22378;SDS011;11357;49.990;7.370;2022-11-22T04:53:49;58.50;;;53.50;;
22378;SDS011;11357;49.990;7.370;2022-11-22T04:56:15;43.93;;;39.80;;
22378;SDS011;11357;49.990;7.370;2022-11-22T04:58:41;71.23;;;66.00;;
22378;SDS011;11357;49.990;7.370;2022-11-22T05:01:07;86.90;;;80.47;;
22378;SDS011;11357;49.990;7.370;2022-11-22T05:03:32;38.13;;;33.40;;
22378;SDS011;11357;49.990;7.370;2022-11-22T05:06:02;38.03;;;29.60;;
22378;SDS011;11357;49.990;7.370;2022-11-22T05:08:28;44.07;;;38.60;;
22378;SDS011;11357;49.990;7.370;2022-11-22T05:10:55;60.00;;;54.97;;
22378;SDS011;11357;49.990;7.370;2022-11-22T05:13:21;62.23;;;57.97;;
22378;SDS011;11357;49.990;7.370;2022-11-22T05:15:47;52.23;;;48.00;;
22378;SDS011;11357;49.990;7.370;2022-11-22T05:18:15;28.07;;;24.37;;
22378;SDS011;11357;49.990;7.370;2022-11-22T05:20:42;37.70;;;33.73;;
22378;SDS011;11357;49.990;7.370;2022-11-22T05:23:08;43.70;;;39.97;;
22378;SDS011;11357;49.990;7.370;2022-11-22T05:25:52;53.53;;;49.30;;
22378;SDS011;11357;49.990;7.370;2022-11-22T05:28:18;61.73;;;54.00;;
22378;SDS011;11357;49.990;7.370;2022-11-22T05:30:43;28.70;;;25.93;;
22378;SDS011;11357;49.990;7.370;2022-11-22T05:33:09;52.87;;;48.47;;
22378;SDS011;11357;49.990;7.370;2022-11-22T05:35:34;54.73;;;49.90;;
22378;SDS011;11357;49.990;7.370;2022-11-22T05:38:00;44.60;;;41.23;;
22378;SDS011;11357;49.990;7.370;2022-11-22T05:40:26;46.60;;;41.20;;
22378;SDS011;11357;49.990;7.370;2022-11-22T05:42:52;38.87;;;34.70;;
22378;SDS011;11357;49.990;7.370;2022-11-22T05:45:17;29.00;;;17.43;;
22378;SDS011;11357;49.990;7.370;2022-11-22T05:47:44;38.97;;;35.30;;
22378;SDS011;11357;49.990;7.370;2022-11-22T05:50:10;33.87;;;30.63;;
22378;SDS011;11357;49.990;7.370;2022-11-22T05:52:36;46.83;;;41.43;;
22378;SDS011;11357;49.990;7.370;2022-11-22T05:55:02;38.50;;;34.83;;
22378;SDS011;11357;49.990;7.370;2022-11-22T05:57:28;44.03;;;40.93;;
22378;SDS011;11357;49.990;7.370;2022-11-22T05:59:56;53.77;;;50.03;;
22378;SDS011;11357;49.990;7.370;2022-11-22T06:02:22;41.03;;;37.60;;
22378;SDS011;11357;49.990;7.370;2022-11-22T06:04:48;39.57;;;35.70;;
22378;SDS011;11357;49.990;7.370;2022-11-22T06:07:13;32.90;;;29.53;;
22378;SDS011;11357;49.990;7.370;2022-11-22T06:09:39;42.60;;;36.67;;
22378;SDS011;11357;49.990;7.370;2022-11-22T06:12:05;39.67;;;36.53;;
22378;SDS011;11357;49.990;7.370;2022-11-22T06:14:31;24.80;;;18.80;;
22378;SDS011;11357;49.990;7.370;2022-11-22T06:16:57;16.70;;;14.80;;
22378;SDS011;11357;49.990;7.370;2022-11-22T06:19:22;16.40;;;11.43;;
22378;SDS011;11357;49.990;7.370;2022-11-22T06:21:48;14.17;;;4.97;;
22378;SDS011;11357;49.990;7.370;2022-11-22T06:24:14;15.10;;;10.90;;
22378;SDS011;11357;49.990;7.370;2022-11-22T06:26:39;17.47;;;8.03;;
22378;SDS011;11357;49.990;7.370;2022-11-22T06:29:05;12.83;;;8.60;;
22378;SDS011;11357;49.990;7.370;2022-11-22T06:31:30;10.43;;;3.27;;
22378;SDS011;11357;49.990;7.370;2022-11-22T06:33:57;19.53;;;5.90;;
22378;SDS011;11357;49.990;7.370;2022-11-22T06:36:25;13.70;;;3.70;;
22378;SDS011;11357;49.990;7.370;2022-11-22T06:38:52;11.43;;;3.63;;
22378;SDS011;11357;49.990;7.370;2022-11-22T06:41:19;16.17;;;5.83;;
22378;SDS011;11357;49.990;7.370;2022-11-22T06:43:48;18.10;;;9.00;;
22378;SDS011;11357;49.990;7.370;2022-11-22T06:46:14;10.43;;;3.73;;
22378;SDS011;11357;49.990;7.370;2022-11-22T06:48:42;7.00;;;2.70;;
22378;SDS011;11357;49.990;7.370;2022-11-22T06:51:09;12.37;;;3.17;;
22378;SDS011;11357;49.990;7.370;2022-11-22T06:53:37;12.10;;;2.60;;
22378;SDS011;11357;49.990;7.370;2022-11-22T06:58:42;14.53;;;2.30;;
22378;SDS011;11357;49.990;7.370;2022-11-22T07:01:09;11.13;;;2.83;;
22378;SDS011;11357;49.990;7.370;2022-11-22T07:03:39;11.10;;;2.87;;
22378;SDS011;11357;49.990;7.370;2022-11-22T07:06:07;10.53;;;3.10;;
22378;SDS011;11357;49.990;7.370;2022-11-22T07:08:34;9.07;;;2.50;;
22378;SDS011;11357;49.990;7.370;2022-11-22T07:11:08;8.83;;;1.80;;
22378;SDS011;11357;49.990;7.370;2022-11-22T07:13:45;11.97;;;1.90;;
22378;SDS011;11357;49.990;7.370;2022-11-22T07:16:13;13.77;;;2.63;;
22378;SDS011;11357;49.990;7.370;2022-11-22T07:18:41;14.43;;;2.77;;
22378;SDS011;11357;49.990;7.370;2022-11-22T07:21:08;10.73;;;2.07;;
22378;SDS011;11357;49.990;7.370;2022-11-22T07:23:36;9.60;;;2.90;;
22378;SDS011;11357;49.990;7.370;2022-11-22T07:26:03;6.00;;;2.03;;
22378;SDS011;11357;49.990;7.370;2022-11-22T07:28:28;8.47;;;2.70;;
22378;SDS011;11357;49.990;7.370;2022-11-22T07:30:57;7.97;;;1.87;;
22378;SDS011;11357;49.990;7.370;2022-11-22T07:33:25;13.40;;;2.93;;
22378;SDS011;11357;49.990;7.370;2022-11-22T07:35:50;4.60;;;1.83;;
22378;SDS011;11357;49.990;7.370;2022-11-22T07:38:16;10.23;;;2.30;;
22378;SDS011;11357;49.990;7.370;2022-11-22T07:40:42;10.63;;;2.23;;
22378;SDS011;11357;49.990;7.370;2022-11-22T07:43:07;8.50;;;3.17;;
22378;SDS011;11357;49.990;7.370;2022-11-22T07:45:33;15.83;;;2.97;;
22378;SDS011;11357;49.990;7.370;2022-11-22T07:47:59;13.53;;;2.60;;
22378;SDS011;11357;49.990;7.370;2022-11-22T07:50:26;12.73;;;2.50;;
22378;SDS011;11357;49.990;7.370;2022-11-22T07:52:55;6.33;;;2.43;;
22378;SDS011;11357;49.990;7.370;2022-11-22T07:55:22;8.53;;;3.27;;
22378;SDS011;11357;49.990;7.370;2022-11-22T07:57:49;7.47;;;3.10;;
22378;SDS011;11357;49.990;7.370;2022-11-22T08:00:16;13.93;;;2.60;;
22378;SDS011;11357;49.990;7.370;2022-11-22T08:02:42;13.87;;;2.13;;
22378;SDS011;11357;49.990;7.370;2022-11-22T08:05:08;14.47;;;2.10;;
22378;SDS011;11357;49.990;7.370;2022-11-22T08:07:34;8.27;;;2.03;;
22378;SDS011;11357;49.990;7.370;2022-11-22T08:10:00;8.97;;;2.33;;
22378;SDS011;11357;49.990;7.370;2022-11-22T08:12:26;9.63;;;2.77;;
22378;SDS011;11357;49.990;7.370;2022-11-22T08:14:51;13.13;;;2.77;;
22378;SDS011;11357;49.990;7.370;2022-11-22T08:17:17;11.57;;;3.90;;
22378;SDS011;11357;49.990;7.370;2022-11-22T08:19:42;10.40;;;2.73;;
22378;SDS011;11357;49.990;7.370;2022-11-22T08:22:08;12.63;;;4.23;;
22378;SDS011;11357;49.990;7.370;2022-11-22T08:24:34;12.83;;;4.20;;
22378;SDS011;11357;49.990;7.370;2022-11-22T08:26:59;11.57;;;5.07;;
22378;SDS011;11357;49.990;7.370;2022-11-22T08:29:25;13.13;;;5.00;;
22378;SDS011;11357;49.990;7.370;2022-11-22T08:31:52;10.97;;;3.80;;
22378;SDS011;11357;49.990;7.370;2022-11-22T08:34:18;14.13;;;6.97;;
22378;SDS011;11357;49.990;7.370;2022-11-22T08:36:44;8.17;;;3.77;;
22378;SDS011;11357;49.990;7.370;2022-11-22T08:39:10;11.23;;;3.00;;
22378;SDS011;11357;49.990;7.370;2022-11-22T08:41:35;9.77;;;2.47;;
22378;SDS011;11357;49.990;7.370;2022-11-22T08:44:01;9.13;;;1.93;;
22378;SDS011;11357;49.990;7.370;2022-11-22T08:46:27;11.03;;;2.83;;
22378;SDS011;11357;49.990;7.370;2022-11-22T08:48:53;8.43;;;2.40;;
22378;SDS011;11357;49.990;7.370;2022-11-22T08:51:19;12.60;;;3.00;;
22378;SDS011;11357;49.990;7.370;2022-11-22T08:53:45;17.50;;;2.73;;
22378;SDS011;11357;49.990;7.370;2022-11-22T08:56:11;12.00;;;3.03;;
22378;SDS011;11357;49.990;7.370;2022-11-22T08:58:38;12.47;;;3.47;;
22378;SDS011;11357;49.990;7.370;2022-11-22T09:01:05;18.80;;;3.83;;
22378;SDS011;11357;49.990;7.370;2022-11-22T09:03:32;7.03;;;2.33;;
22378;SDS011;11357;49.990;7.370;2022-11-22T09:06:03;19.27;;;2.93;;
22378;SDS011;11357;49.990;7.370;2022-11-22T09:08:30;11.87;;;3.93;;
22378;SDS011;11357;49.990;7.370;2022-11-22T09:11:00;7.33;;;3.70;;
22378;SDS011;11357;49.990;7.370;2022-11-22T09:13:27;19.30;;;8.17;;
22378;SDS011;11357;49.990;7.370;2022-11-22T09:15:53;16.27;;;3.20;;
22378;SDS011;11357;49.990;7.370;2022-11-22T09:18:19;13.70;;;9.67;;
22378;SDS011;11357;49.990;7.370;2022-11-22T09:20:45;16.57;;;10.37;;
22378;SDS011;11357;49.990;7.370;2022-11-22T09:23:11;11.07;;;4.23;;
22378;SDS011;11357;49.990;7.370;2022-11-22T09:25:36;10.77;;;4.70;;
22378;SDS011;11357;49.990;7.370;2022-11-22T09:28:02;14.20;;;5.23;;
22378;SDS011;11357;49.990;7.370;2022-11-22T09:30:28;15.77;;;4.20;;
22378;SDS011;11357;49.990;7.370;2022-11-22T09:32:54;9.37;;;3.83;;
22378;SDS011;11357;49.990;7.370;2022-11-22T09:35:20;8.93;;;2.80;;
22378;SDS011;11357;49.990;7.370;2022-11-22T09:37:45;5.50;;;2.73;;
22378;SDS011;11357;49.990;7.370;2022-11-22T09:40:12;24.20;;;16.40;;
22378;SDS011;11357;49.990;7.370;2022-11-22T09:51:04;10.57;;;3.03;;
22378;SDS011;11357;49.990;7.370;2022-11-22T09:56:11;16.33;;;14.90;;
22378;SDS011;11357;49.990;7.370;2022-11-22T10:06:26;16.47;;;14.73;;
22378;SDS011;11357;49.990;7.370;2022-11-22T10:11:47;4.70;;;2.30;;
22378;SDS011;11357;49.990;7.370;2022-11-22T10:19:56;4.90;;;2.67;;
22378;SDS011;11357;49.990;7.370;2022-11-22T10:22:30;7.17;;;2.77;;
22378;SDS011;11357;49.990;7.370;2022-11-22T10:25:00;5.17;;;1.77;;
22378;SDS011;11357;49.990;7.370;2022-11-22T10:27:29;5.20;;;2.03;;
22378;SDS011;11357;49.990;7.370;2022-11-22T10:30:05;4.77;;;1.80;;
22378;SDS011;11357;49.990;7.370;2022-11-22T10:33:03;10.53;;;1.93;;
22378;SDS011;11357;49.990;7.370;2022-11-22T10:46:45;6.53;;;2.17;;
22378;SDS011;11357;49.990;7.370;2022-11-22T10:57:33;8.07;;;3.87;;
22378;SDS011;11357;49.990;7.370;2022-11-22T11:00:22;8.20;;;2.93;;
22378;SDS011;11357;49.990;7.370;2022-11-22T11:08:12;5.90;;;4.10;;
22378;SDS011;11357;49.990;7.370;2022-11-22T11:10:41;6.57;;;2.00;;
22378;SDS011;11357;49.990;7.370;2022-11-22T11:13:24;3.47;;;1.97;;
22378;SDS011;11357;49.990;7.370;2022-11-22T11:15:53;5.43;;;2.43;;
22378;SDS011;11357;49.990;7.370;2022-11-22T11:18:26;8.00;;;2.13;;
22378;SDS011;11357;49.990;7.370;2022-11-22T11:20:55;7.30;;;4.77;;
22378;SDS011;11357;49.990;7.370;2022-11-22T11:23:21;4.47;;;2.07;;
22378;SDS011;11357;49.990;7.370;2022-11-22T11:25:47;6.80;;;3.00;;
22378;SDS011;11357;49.990;7.370;2022-11-22T11:33:29;6.27;;;2.37;;
22378;SDS011;11357;49.990;7.370;2022-11-22T11:41:01;9.20;;;7.77;;
22378;SDS011;11357;49.990;7.370;2022-11-22T11:43:45;8.90;;;6.00;;
22378;SDS011;11357;49.990;7.370;2022-11-22T11:46:18;9.40;;;2.43;;
22378;SDS011;11357;49.990;7.370;2022-11-22T11:48:53;5.33;;;3.77;;
22378;SDS011;11357;49.990;7.370;2022-11-22T11:51:40;8.00;;;3.10;;
22378;SDS011;11357;49.990;7.370;2022-11-22T11:54:16;11.53;;;7.63;;
22378;SDS011;11357;49.990;7.370;2022-11-22T11:56:45;7.30;;;4.07;;
22378;SDS011;11357;49.990;7.370;2022-11-22T11:59:45;4.93;;;3.57;;
22378;SDS011;11357;49.990;7.370;2022-11-22T12:09:44;10.27;;;4.13;;
22378;SDS011;11357;49.990;7.370;2022-11-22T12:12:14;8.70;;;4.53;;
22378;SDS011;11357;49.990;7.370;2022-11-22T12:17:56;8.67;;;2.43;;
22378;SDS011;11357;49.990;7.370;2022-11-22T12:20:42;5.43;;;3.13;;
22378;SDS011;11357;49.990;7.370;2022-11-22T12:23:37;5.13;;;1.87;;
22378;SDS011;11357;49.990;7.370;2022-11-22T12:26:11;6.50;;;2.73;;
22378;SDS011;11357;49.990;7.370;2022-11-22T12:28:37;3.67;;;1.70;;
22378;SDS011;11357;49.990;7.370;2022-11-22T12:33:57;4.70;;;3.07;;
22378;SDS011;11357;49.990;7.370;2022-11-22T12:36:28;5.37;;;2.20;;
22378;SDS011;11357;49.990;7.370;2022-11-22T12:39:00;4.07;;;1.80;;
22378;SDS011;11357;49.990;7.370;2022-11-22T12:41:28;8.90;;;8.27;;
22378;SDS011;11357;49.990;7.370;2022-11-22T12:43:58;10.27;;;8.83;;
22378;SDS011;11357;49.990;7.370;2022-11-22T12:46:29;5.33;;;2.93;;
22378;SDS011;11357;49.990;7.370;2022-11-22T12:49:06;2.13;;;1.73;;
22378;SDS011;11357;49.990;7.370;2022-11-22T12:51:52;3.23;;;1.87;;
22378;SDS011;11357;49.990;7.370;2022-11-22T12:54:26;5.07;;;4.67;;
22378;SDS011;11357;49.990;7.370;2022-11-22T12:56:58;8.53;;;7.77;;
22378;SDS011;11357;49.990;7.370;2022-11-22T13:05:16;4.33;;;2.00;;
22378;SDS011;11357;49.990;7.370;2022-11-22T13:10:44;4.57;;;1.50;;
22378;SDS011;11357;49.990;7.370;2022-11-22T13:13:21;15.10;;;14.10;;
22378;SDS011;11357;49.990;7.370;2022-11-22T13:15:52;3.00;;;2.53;;
22378;SDS011;11357;49.990;7.370;2022-11-22T13:18:23;5.33;;;4.93;;
22378;SDS011;11357;49.990;7.370;2022-11-22T13:20:56;4.03;;;3.70;;
22378;SDS011;11357;49.990;7.370;2022-11-22T13:29:26;2.23;;;0.97;;
22378;SDS011;11357;49.990;7.370;2022-11-22T13:34:28;2.53;;;2.37;;
22378;SDS011;11357;49.990;7.370;2022-11-22T13:36:58;1.87;;;1.73;;
22378;SDS011;11357;49.990;7.370;2022-11-22T13:39:46;1.77;;;1.23;;
22378;SDS011;11357;49.990;7.370;2022-11-22T13:42:17;3.07;;;2.90;;
22378;SDS011;11357;49.990;7.370;2022-11-22T13:45:05;4.27;;;4.10;;
22378;SDS011;11357;49.990;7.370;2022-11-22T13:47:47;2.13;;;1.40;;
22378;SDS011;11357;49.990;7.370;2022-11-22T13:53:23;3.00;;;2.80;;
22378;SDS011;11357;49.990;7.370;2022-11-22T13:55:52;4.90;;;3.80;;
22378;SDS011;11357;49.990;7.370;2022-11-22T14:00:48;11.30;;;10.77;;
22378;SDS011;11357;49.990;7.370;2022-11-22T14:06:23;3.03;;;2.80;;
22378;SDS011;11357;49.990;7.370;2022-11-22T14:11:59;1.03;;;0.97;;
22378;SDS011;11357;49.990;7.370;2022-11-22T14:19:56;5.67;;;5.33;;
22378;SDS011;11357;49.990;7.370;2022-11-22T14:25:40;5.03;;;4.80;;
22378;SDS011;11357;49.990;7.370;2022-11-22T14:30:50;6.17;;;5.80;;
22378;SDS011;11357;49.990;7.370;2022-11-22T14:33:19;12.20;;;11.60;;
22378;SDS011;11357;49.990;7.370;2022-11-22T14:38:31;28.33;;;26.87;;
22378;SDS011;11357;49.990;7.370;2022-11-22T14:44:01;15.47;;;14.13;;
22378;SDS011;11357;49.990;7.370;2022-11-22T14:46:54;74.40;;;70.23;;
22378;SDS011;11357;49.990;7.370;2022-11-22T14:52:19;16.83;;;15.87;;
22378;SDS011;11357;49.990;7.370;2022-11-22T14:54:54;26.47;;;25.10;;
22378;SDS011;11357;49.990;7.370;2022-11-22T14:57:22;47.17;;;44.87;;
22378;SDS011;11357;49.990;7.370;2022-11-22T15:08:22;27.77;;;26.40;;
22378;SDS011;11357;49.990;7.370;2022-11-22T15:16:27;49.27;;;46.87;;
22378;SDS011;11357;49.990;7.370;2022-11-22T15:18:56;20.10;;;19.17;;
22378;SDS011;11357;49.990;7.370;2022-11-22T15:21:30;56.97;;;54.17;;
22378;SDS011;11357;49.990;7.370;2022-11-22T15:23:57;78.23;;;74.20;;
22378;SDS011;11357;49.990;7.370;2022-11-22T15:26:25;59.83;;;56.57;;
22378;SDS011;11357;49.990;7.370;2022-11-22T15:28:53;45.00;;;42.40;;
22378;SDS011;11357;49.990;7.370;2022-11-22T15:31:24;69.10;;;65.43;;
22378;SDS011;11357;49.990;7.370;2022-11-22T15:33:59;35.07;;;33.37;;
22378;SDS011;11357;49.990;7.370;2022-11-22T15:39:24;71.93;;;68.23;;
22378;SDS011;11357;49.990;7.370;2022-11-22T15:41:53;90.07;;;85.20;;
22378;SDS011;11357;49.990;7.370;2022-11-22T15:44:21;109.03;;;103.17;;
22378;SDS011;11357;49.990;7.370;2022-11-22T15:46:48;63.20;;;60.00;;
22378;SDS011;11357;49.990;7.370;2022-11-22T15:49:15;52.43;;;49.93;;
22378;SDS011;11357;49.990;7.370;2022-11-22T15:51:52;136.27;;;129.13;;
22378;SDS011;11357;49.990;7.370;2022-11-22T15:54:23;54.43;;;51.87;;
22378;SDS011;11357;49.990;7.370;2022-11-22T15:56:56;66.97;;;63.50;;
22378;SDS011;11357;49.990;7.370;2022-11-22T15:59:27;154.83;;;145.70;;
22378;SDS011;11357;49.990;7.370;2022-11-22T16:02:00;94.90;;;90.10;;
22378;SDS011;11357;49.990;7.370;2022-11-22T16:04:35;117.53;;;111.30;;
22378;SDS011;11357;49.990;7.370;2022-11-22T16:07:01;137.80;;;130.00;;
22378;SDS011;11357;49.990;7.370;2022-11-22T16:09:33;141.47;;;133.53;;
22378;SDS011;11357;49.990;7.370;2022-11-22T16:14:51;59.17;;;56.37;;
22378;SDS011;11357;49.990;7.370;2022-11-22T16:17:27;100.10;;;94.57;;
22378;SDS011;11357;49.990;7.370;2022-11-22T16:25:31;28.27;;;26.90;;
22378;SDS011;11357;49.990;7.370;2022-11-22T16:27:59;5.27;;;5.03;;
22378;SDS011;11357;49.990;7.370;2022-11-22T16:30:28;38.93;;;37.13;;
22378;SDS011;11357;49.990;7.370;2022-11-22T16:32:54;11.07;;;10.57;;
22378;SDS011;11357;49.990;7.370;2022-11-22T16:35:22;74.60;;;70.83;;
22378;SDS011;11357;49.990;7.370;2022-11-22T16:37:48;38.47;;;36.57;;
22378;SDS011;11357;49.990;7.370;2022-11-22T16:40:13;35.13;;;33.40;;
22378;SDS011;11357;49.990;7.370;2022-11-22T16:42:40;53.53;;;50.60;;
22378;SDS011;11357;49.990;7.370;2022-11-22T16:45:13;15.07;;;14.17;;
22378;SDS011;11357;49.990;7.370;2022-11-22T16:47:41;33.97;;;32.10;;
22378;SDS011;11357;49.990;7.370;2022-11-22T16:50:09;61.33;;;58.13;;
22378;SDS011;11357;49.990;7.370;2022-11-22T16:52:36;32.80;;;31.10;;
22378;SDS011;11357;49.990;7.370;2022-11-22T16:55:03;111.70;;;105.80;;
22378;SDS011;11357;49.990;7.370;2022-11-22T16:57:29;79.67;;;75.70;;
22378;SDS011;11357;49.990;7.370;2022-11-22T16:59:55;55.27;;;52.37;;
22378;SDS011;11357;49.990;7.370;2022-11-22T17:02:20;111.77;;;105.57;;
22378;SDS011;11357;49.990;7.370;2022-11-22T17:04:46;76.77;;;72.87;;
22378;SDS011;11357;49.990;7.370;2022-11-22T17:07:13;107.43;;;101.53;;
22378;SDS011;11357;49.990;7.370;2022-11-22T17:09:40;90.27;;;84.90;;
22378;SDS011;11357;49.990;7.370;2022-11-22T17:12:12;114.60;;;108.40;;